createdAt,value
2023-08-31T00:02:26.354Z,84.22
2023-08-31T00:04:56.406Z,111.30
2023-08-31T00:07:24.594Z,98.00
2023-08-31T00:09:54.988Z,106.70
2023-08-31T00:12:23.354Z,85.18
2023-08-31T00:14:53.040Z,86.40
2023-08-31T00:17:20.805Z,82.30
2023-08-31T00:19:48.555Z,84.55
2023-08-31T00:22:16.317Z,84.47
2023-08-31T00:24:44.128Z,99.13
2023-08-31T00:27:13.440Z,82.47
2023-08-31T00:29:41.693Z,91.30
2023-08-31T00:32:12.931Z,85.47
2023-08-31T00:34:40.697Z,79.68
2023-08-31T00:37:10.779Z,79.88
2023-08-31T00:39:38.627Z,64.15
2023-08-31T00:42:06.909Z,63.30
2023-08-31T00:44:34.754Z,55.45
2023-08-31T00:47:03.171Z,56.27
2023-08-31T00:49:32.438Z,61.42
2023-08-31T00:52:00.266Z,79.15
2023-08-31T00:54:28.780Z,82.55
2023-08-31T00:56:58.242Z,92.95
2023-08-31T00:59:27.637Z,94.30
2023-08-31T01:02:05.954Z,94.45
2023-08-31T01:04:43.525Z,72.88
2023-08-31T01:07:23.151Z,64.13
2023-08-31T01:09:59.982Z,71.68
2023-08-31T01:12:33.978Z,86.07
2023-08-31T01:15:08.400Z,102.10
2023-08-31T01:17:43.437Z,120.88
2023-08-31T01:20:17.198Z,141.05
2023-08-31T01:22:49.143Z,160.47
2023-08-31T01:25:20.648Z,141.50
2023-08-31T01:27:48.826Z,106.88
2023-08-31T01:30:17.189Z,84.75
2023-08-31T01:32:47.459Z,109.25
2023-08-31T01:35:19.030Z,96.00
2023-08-31T01:37:54.889Z,92.05
2023-08-31T01:40:28.599Z,102.95
2023-08-31T01:42:57.608Z,114.28
2023-08-31T01:45:27.201Z,109.05
2023-08-31T01:47:55.210Z,108.77
2023-08-31T01:50:25.350Z,117.37
2023-08-31T01:52:54.424Z,117.50
2023-08-31T01:55:22.927Z,93.53
2023-08-31T01:57:52.128Z,79.55
2023-08-31T02:00:28.674Z,79.90
2023-08-31T02:02:57.951Z,82.95
2023-08-31T02:05:25.942Z,128.53
2023-08-31T02:07:54.647Z,124.95
2023-08-31T02:10:24.608Z,86.65
2023-08-31T02:12:53.821Z,78.47
2023-08-31T02:15:21.774Z,111.72
2023-08-31T02:17:49.621Z,127.40
2023-08-31T02:20:21.584Z,149.67
2023-08-31T02:22:50.386Z,132.48
2023-08-31T02:25:18.688Z,95.57
2023-08-31T02:27:47.915Z,100.80
2023-08-31T02:30:18.516Z,129.30
2023-08-31T02:32:46.377Z,135.95
2023-08-31T02:35:15.746Z,152.80
2023-08-31T02:37:43.542Z,98.65
2023-08-31T02:40:13.101Z,152.00
2023-08-31T02:42:40.930Z,162.65
2023-08-31T02:45:09.342Z,159.43
2023-08-31T02:47:38.705Z,110.77
2023-08-31T02:50:08.109Z,83.72
2023-08-31T02:52:35.909Z,100.57
2023-08-31T02:55:04.510Z,140.88
2023-08-31T02:57:32.257Z,106.30
2023-08-31T03:00:00.415Z,106.30
2023-08-31T03:02:28.532Z,93.70
2023-08-31T03:04:58.855Z,130.18
2023-08-31T03:07:26.830Z,122.93
2023-08-31T03:09:54.561Z,90.60
2023-08-31T03:12:23.433Z,116.18
2023-08-31T03:14:51.189Z,130.93
2023-08-31T03:17:19.682Z,78.20
2023-08-31T03:19:47.532Z,69.38
2023-08-31T03:22:16.814Z,79.63
2023-08-31T03:24:44.616Z,100.73
2023-08-31T03:27:12.409Z,95.45
2023-08-31T03:29:41.345Z,174.47
2023-08-31T03:32:09.192Z,180.05
2023-08-31T03:34:36.953Z,197.30
2023-08-31T03:37:04.946Z,167.47
2023-08-31T03:39:35.782Z,95.70
2023-08-31T03:42:03.630Z,60.92
2023-08-31T03:44:31.503Z,94.03
2023-08-31T03:46:59.287Z,122.15
2023-08-31T03:49:28.097Z,92.70
2023-08-31T03:51:55.930Z,84.00
2023-08-31T03:54:23.762Z,114.25
2023-08-31T03:56:54.509Z,138.27
2023-08-31T03:59:22.526Z,177.03
2023-08-31T04:01:50.472Z,196.50
2023-08-31T04:04:18.452Z,154.02
2023-08-31T04:06:48.408Z,131.77
2023-08-31T04:09:16.223Z,183.48
2023-08-31T04:11:44.259Z,166.27
2023-08-31T04:14:13.420Z,204.77
2023-08-31T04:16:41.528Z,232.90
2023-08-31T04:19:10.135Z,194.17
2023-08-31T04:21:39.174Z,221.13
2023-08-31T04:24:08.055Z,252.13
2023-08-31T04:26:35.873Z,152.70
2023-08-31T04:29:04.719Z,138.40
2023-08-31T04:31:33.856Z,135.00
2023-08-31T04:34:01.716Z,131.65
2023-08-31T04:36:29.838Z,137.17
2023-08-31T04:38:57.579Z,214.50
2023-08-31T04:41:25.392Z,226.57
2023-08-31T04:43:53.475Z,124.97
2023-08-31T04:46:21.435Z,90.38
2023-08-31T04:48:50.561Z,68.78
2023-08-31T04:51:33.453Z,90.55
2023-08-31T04:54:01.485Z,123.45
2023-08-31T04:56:34.084Z,151.45
2023-08-31T04:59:03.485Z,193.02
2023-08-31T05:01:31.620Z,133.95
2023-08-31T05:04:01.294Z,110.75
2023-08-31T05:06:29.106Z,211.63
2023-08-31T05:08:57.818Z,236.77
2023-08-31T05:11:28.002Z,162.27
2023-08-31T05:13:55.794Z,262.08
2023-08-31T05:16:23.595Z,154.13
2023-08-31T05:18:51.455Z,171.23
2023-08-31T05:21:20.565Z,179.98
2023-08-31T05:23:48.457Z,99.43
2023-08-31T05:26:16.704Z,103.68
2023-08-31T05:28:45.490Z,122.07
2023-08-31T05:31:13.527Z,103.22
2023-08-31T05:33:41.520Z,92.88
2023-08-31T05:36:09.275Z,95.07
2023-08-31T05:38:38.694Z,114.45
2023-08-31T05:41:09.417Z,156.23
2023-08-31T05:43:41.231Z,180.95
2023-08-31T05:46:11.861Z,110.20
2023-08-31T05:48:39.945Z,160.15
2023-08-31T05:51:07.972Z,165.27
2023-08-31T05:53:35.924Z,208.07
2023-08-31T05:56:06.123Z,221.90
2023-08-31T05:58:37.821Z,249.23
2023-08-31T06:01:06.993Z,287.85
2023-08-31T06:03:35.424Z,292.10
2023-08-31T06:06:04.686Z,234.03
2023-08-31T06:08:32.668Z,171.02
2023-08-31T06:11:03.632Z,246.13
2023-08-31T06:13:32.854Z,270.13
2023-08-31T06:16:01.006Z,220.80
2023-08-31T06:18:30.785Z,289.35
2023-08-31T06:20:59.131Z,261.90
2023-08-31T06:23:26.975Z,236.00
2023-08-31T06:25:54.911Z,200.63
2023-08-31T06:28:22.789Z,258.50
2023-08-31T06:30:52.696Z,239.38
2023-08-31T06:33:21.192Z,231.50
2023-08-31T06:35:53.043Z,166.95
2023-08-31T06:38:21.318Z,166.38
2023-08-31T06:40:49.641Z,132.03
2023-08-31T06:43:17.494Z,166.07
2023-08-31T06:45:45.402Z,250.30
2023-08-31T06:48:14.786Z,262.30
2023-08-31T06:50:42.632Z,289.35
2023-08-31T06:53:10.826Z,289.00
2023-08-31T06:55:39.492Z,303.27
2023-08-31T06:58:09.788Z,338.30
2023-08-31T07:00:39.734Z,300.10
2023-08-31T07:03:10.180Z,240.60
2023-08-31T07:05:44.634Z,290.00
2023-08-31T07:08:12.760Z,244.35
2023-08-31T07:10:40.612Z,251.57
2023-08-31T07:13:10.874Z,242.93
2023-08-31T07:15:39.524Z,253.90
2023-08-31T07:18:07.368Z,231.07
2023-08-31T07:20:35.566Z,198.38
2023-08-31T07:23:07.137Z,198.83
2023-08-31T07:25:35.221Z,186.18
2023-08-31T07:28:04.120Z,143.52
2023-08-31T07:30:34.253Z,167.33
2023-08-31T07:33:11.006Z,145.60
2023-08-31T07:35:45.066Z,156.73
2023-08-31T07:38:14.333Z,114.32
2023-08-31T07:40:43.049Z,113.60
2023-08-31T07:43:13.215Z,98.50
2023-08-31T07:45:41.347Z,103.00
2023-08-31T07:48:09.249Z,118.68
2023-08-31T07:50:37.131Z,148.93
2023-08-31T07:53:05.565Z,141.00
2023-08-31T07:55:34.804Z,130.57
2023-08-31T07:58:03.747Z,151.18
2023-08-31T08:00:31.602Z,223.77
2023-08-31T08:02:59.593Z,225.75
2023-08-31T08:05:27.556Z,267.50
2023-08-31T08:07:55.445Z,310.27
2023-08-31T08:10:23.275Z,279.83
2023-08-31T08:12:52.519Z,257.67
2023-08-31T08:15:20.673Z,277.30
2023-08-31T08:17:49.363Z,349.65
2023-08-31T08:20:17.428Z,375.27
2023-08-31T08:22:48.674Z,384.55
2023-08-31T08:25:18.841Z,375.05
2023-08-31T08:27:46.690Z,363.40
2023-08-31T08:30:16.727Z,376.73
2023-08-31T08:32:45.287Z,507.63
2023-08-31T08:35:13.284Z,570.63
2023-08-31T08:37:41.121Z,461.52
2023-08-31T08:40:09.991Z,267.65
2023-08-31T08:42:43.319Z,247.75
2023-08-31T08:45:17.413Z,436.53
2023-08-31T08:47:46.312Z,575.42
2023-08-31T08:50:14.925Z,576.67
2023-08-31T08:52:43.911Z,501.70
2023-08-31T08:55:12.422Z,494.35
2023-08-31T08:57:40.792Z,400.83
2023-08-31T09:00:12.101Z,315.65
2023-08-31T09:02:41.416Z,286.73
2023-08-31T09:05:11.969Z,316.58
2023-08-31T09:08:02.446Z,364.35
2023-08-31T09:10:37.625Z,418.67
2023-08-31T09:13:08.430Z,377.90
2023-08-31T09:15:42.669Z,365.92
2023-08-31T09:18:16.921Z,332.05
2023-08-31T09:20:46.553Z,311.42
2023-08-31T09:23:14.730Z,330.35
2023-08-31T09:25:48.685Z,277.73
2023-08-31T09:28:17.428Z,236.13
2023-08-31T09:30:45.497Z,166.35
2023-08-31T09:33:18.746Z,149.82
2023-08-31T09:35:52.000Z,132.07
2023-08-31T09:38:20.084Z,145.20
2023-08-31T09:40:48.403Z,149.50
2023-08-31T09:43:22.108Z,131.50
2023-08-31T09:45:50.848Z,84.03
2023-08-31T09:48:21.444Z,97.00
2023-08-31T09:50:50.875Z,131.23
2023-08-31T09:53:19.187Z,104.85
2023-08-31T09:55:49.210Z,64.18
2023-08-31T09:58:20.723Z,38.47
2023-08-31T10:00:50.321Z,75.97
2023-08-31T10:03:19.574Z,75.00
2023-08-31T10:05:51.469Z,49.60
2023-08-31T10:08:20.703Z,81.47
2023-08-31T10:10:48.721Z,94.65
2023-08-31T10:13:17.442Z,37.50
2023-08-31T10:15:46.367Z,58.85
2023-08-31T10:18:14.213Z,70.20
2023-08-31T10:20:45.216Z,96.68
2023-08-31T10:23:15.510Z,54.55
2023-08-31T10:26:05.946Z,99.82
2023-08-31T10:28:41.936Z,80.80
2023-08-31T10:31:11.412Z,86.75
2023-08-31T10:33:43.575Z,75.65
2023-08-31T10:36:12.426Z,78.05
2023-08-31T10:38:41.958Z,76.88
2023-08-31T10:41:24.106Z,80.55
2023-08-31T10:43:53.587Z,76.22
2023-08-31T10:46:29.602Z,87.05
2023-08-31T10:48:59.118Z,81.93
2023-08-31T10:51:29.359Z,74.63
2023-08-31T10:54:10.664Z,80.13
2023-08-31T10:56:55.871Z,71.50
2023-08-31T10:59:24.385Z,74.80
2023-08-31T11:01:59.144Z,79.60
2023-08-31T11:04:28.817Z,74.70
2023-08-31T11:07:15.387Z,74.80
2023-08-31T11:09:48.155Z,71.10
2023-08-31T11:12:18.115Z,81.45
2023-08-31T11:14:46.297Z,72.22
2023-08-31T11:17:14.091Z,69.63
2023-08-31T11:19:43.462Z,71.03
2023-08-31T11:22:13.820Z,73.10
2023-08-31T11:24:44.036Z,72.97
2023-08-31T11:27:13.294Z,70.82
2023-08-31T11:29:45.391Z,63.05
2023-08-31T11:32:15.539Z,60.38
2023-08-31T11:34:44.498Z,66.68
2023-08-31T11:37:17.613Z,39.85
2023-08-31T11:39:51.758Z,71.05
2023-08-31T11:42:22.130Z,61.88
2023-08-31T11:44:51.226Z,61.15
2023-08-31T11:47:19.879Z,68.90
2023-08-31T11:49:49.821Z,65.05
2023-08-31T11:52:20.702Z,61.03
2023-08-31T11:54:54.047Z,66.72
2023-08-31T11:57:27.810Z,68.63
2023-08-31T11:59:56.224Z,64.70
2023-08-31T12:02:24.300Z,59.23
2023-08-31T12:04:54.290Z,63.50
2023-08-31T12:07:22.990Z,69.63
2023-08-31T12:09:51.407Z,58.60
2023-08-31T12:12:23.789Z,62.72
2023-08-31T12:14:54.956Z,64.78
2023-08-31T12:17:22.779Z,65.53
2023-08-31T12:19:50.600Z,65.53
2023-08-31T12:22:18.435Z,72.03
2023-08-31T12:24:46.249Z,60.90
2023-08-31T12:27:14.014Z,55.47
2023-08-31T12:29:43.244Z,58.80
2023-08-31T12:32:11.013Z,59.50
2023-08-31T12:34:38.765Z,56.72
2023-08-31T12:37:06.586Z,52.65
2023-08-31T12:39:34.508Z,37.08
2023-08-31T12:42:12.484Z,39.03
2023-08-31T12:44:50.112Z,33.97
2023-08-31T12:47:18.061Z,30.27
2023-08-31T12:49:45.852Z,50.90
2023-08-31T12:52:15.464Z,53.90
2023-08-31T12:54:43.390Z,49.47
2023-08-31T12:57:11.280Z,36.80
2023-08-31T12:59:39.073Z,39.27
2023-08-31T13:02:11.862Z,40.85
2023-08-31T13:04:41.517Z,36.38
2023-08-31T13:07:11.864Z,34.25
2023-08-31T13:09:41.990Z,35.53
2023-08-31T13:12:12.199Z,29.75
2023-08-31T13:14:40.119Z,31.27
2023-08-31T13:17:09.287Z,29.25
2023-08-31T13:19:37.118Z,26.45
2023-08-31T13:22:07.923Z,29.75
2023-08-31T13:24:35.731Z,24.75
2023-08-31T13:27:03.722Z,27.23
2023-08-31T13:29:33.125Z,16.23
2023-08-31T13:32:00.999Z,16.77
2023-08-31T13:34:30.433Z,29.10
2023-08-31T13:36:58.247Z,30.80
2023-08-31T13:39:26.149Z,25.92
2023-08-31T13:41:54.258Z,40.77
2023-08-31T13:44:22.497Z,21.55
2023-08-31T13:46:50.437Z,28.45
2023-08-31T13:49:18.427Z,28.42
2023-08-31T13:51:47.567Z,26.13
2023-08-31T13:54:15.473Z,28.05
2023-08-31T13:56:44.075Z,23.02
2023-08-31T13:59:14.034Z,25.30
2023-08-31T14:01:42.325Z,20.53
2023-08-31T14:04:10.083Z,24.07
2023-08-31T14:06:38.137Z,24.70
2023-08-31T14:09:09.150Z,23.67
2023-08-31T14:11:37.621Z,22.30
2023-08-31T14:14:10.355Z,22.20
2023-08-31T14:16:38.625Z,23.90
2023-08-31T14:19:06.928Z,21.63
2023-08-31T14:21:34.967Z,24.75
2023-08-31T14:24:02.928Z,37.60
2023-08-31T14:26:32.049Z,28.17
2023-08-31T14:29:00.008Z,38.38
2023-08-31T14:31:27.933Z,31.40
2023-08-31T14:33:56.812Z,31.85
2023-08-31T14:36:24.673Z,41.75
2023-08-31T14:38:52.424Z,43.63
2023-08-31T14:41:20.177Z,27.37
2023-08-31T14:43:49.351Z,34.15
2023-08-31T14:46:17.194Z,54.58
2023-08-31T14:48:45.345Z,37.43
2023-08-31T14:51:14.553Z,40.97
2023-08-31T14:53:43.315Z,33.10
2023-08-31T14:56:11.153Z,50.67
2023-08-31T14:58:39.128Z,53.10
2023-08-31T15:01:08.854Z,55.38
2023-08-31T15:03:37.625Z,50.00
2023-08-31T15:06:05.934Z,44.97
2023-08-31T15:08:38.598Z,59.17
2023-08-31T15:11:06.921Z,53.08
2023-08-31T15:13:34.824Z,43.08
2023-08-31T15:16:03.065Z,52.40
2023-08-31T15:18:32.667Z,51.47
2023-08-31T15:21:00.609Z,38.88
2023-08-31T15:23:28.437Z,55.03
2023-08-31T15:26:01.298Z,60.53
2023-08-31T15:28:29.182Z,53.20
2023-08-31T15:30:57.544Z,50.53
2023-08-31T15:33:25.398Z,58.27
2023-08-31T15:36:06.651Z,40.13
2023-08-31T15:38:35.017Z,58.70
2023-08-31T15:41:04.319Z,54.42
2023-08-31T15:43:35.406Z,43.00
2023-08-31T15:46:05.199Z,59.33
2023-08-31T15:48:33.235Z,60.65
2023-08-31T15:51:01.686Z,56.03
2023-08-31T15:53:31.604Z,54.15
2023-08-31T15:55:59.562Z,49.25
2023-08-31T15:58:28.126Z,50.58
2023-08-31T16:01:02.800Z,50.95
2023-08-31T16:03:32.085Z,44.92
2023-08-31T16:06:01.443Z,58.60
2023-08-31T16:08:30.626Z,45.85
2023-08-31T16:10:59.019Z,38.33
2023-08-31T16:13:27.168Z,35.67
2023-08-31T16:15:54.992Z,51.92
2023-08-31T16:18:22.816Z,39.50
2023-08-31T16:20:50.796Z,53.20
2023-08-31T16:23:18.601Z,46.35
2023-08-31T16:25:47.739Z,41.20
2023-08-31T16:28:15.839Z,36.08
2023-08-31T16:30:48.251Z,42.47
2023-08-31T16:33:16.238Z,48.70
2023-08-31T16:35:44.066Z,39.92
2023-08-31T16:38:12.391Z,46.87
2023-08-31T16:40:40.464Z,44.15
2023-08-31T16:43:09.558Z,48.35
2023-08-31T16:45:37.390Z,38.63
2023-08-31T16:48:06.028Z,39.65
2023-08-31T16:50:35.563Z,34.40
2023-08-31T16:53:04.200Z,43.55
2023-08-31T16:55:32.341Z,32.47
2023-08-31T16:58:03.778Z,34.65
2023-08-31T17:00:33.284Z,35.70
2023-08-31T17:03:01.153Z,34.38
2023-08-31T17:05:30.454Z,35.50
2023-08-31T17:07:58.273Z,32.27
2023-08-31T17:10:26.173Z,42.00
2023-08-31T17:12:54.376Z,35.85
2023-08-31T17:15:22.350Z,37.90
2023-08-31T17:17:53.405Z,37.97
2023-08-31T17:20:23.142Z,39.60
2023-08-31T17:22:50.955Z,49.15
2023-08-31T17:25:19.060Z,54.80
2023-08-31T17:27:46.881Z,53.92
2023-08-31T17:30:15.124Z,59.25
2023-08-31T17:32:43.145Z,53.22
2023-08-31T17:35:12.411Z,63.83
2023-08-31T17:37:40.295Z,57.23
2023-08-31T17:40:09.389Z,54.83
2023-08-31T17:42:38.510Z,61.63
2023-08-31T17:45:07.179Z,61.45
2023-08-31T17:47:35.253Z,61.50
2023-08-31T17:50:04.182Z,67.43
2023-08-31T17:52:33.725Z,82.57
2023-08-31T17:55:01.675Z,99.43
2023-08-31T17:57:30.234Z,126.43
2023-08-31T17:59:58.259Z,115.25
2023-08-31T18:02:28.680Z,133.50
2023-08-31T18:04:56.613Z,113.18
2023-08-31T18:07:24.424Z,105.10
2023-08-31T18:09:53.563Z,114.90
2023-08-31T18:12:21.521Z,118.07
2023-08-31T18:14:51.435Z,107.10
2023-08-31T18:17:20.232Z,100.45
2023-08-31T18:19:48.443Z,114.13
2023-08-31T18:22:16.315Z,119.18
2023-08-31T18:24:44.233Z,162.40
2023-08-31T18:27:13.491Z,143.65
2023-08-31T18:29:41.240Z,145.65
2023-08-31T18:32:09.281Z,144.15
2023-08-31T18:34:37.193Z,167.27
2023-08-31T18:37:05.419Z,183.85
2023-08-31T18:39:33.240Z,167.05
2023-08-31T18:42:03.083Z,146.40
2023-08-31T18:44:32.717Z,137.20
2023-08-31T18:47:00.509Z,143.35
2023-08-31T18:49:28.400Z,137.38
2023-08-31T18:51:59.382Z,126.38
2023-08-31T18:54:27.290Z,126.97
2023-08-31T18:56:55.154Z,115.93
2023-08-31T18:59:23.008Z,107.35
2023-08-31T19:01:54.246Z,104.03
2023-08-31T19:04:22.133Z,106.50
2023-08-31T19:06:53.293Z,96.50
2023-08-31T19:09:21.630Z,99.00
2023-08-31T19:11:49.891Z,100.13
2023-08-31T19:14:17.775Z,71.22
2023-08-31T19:16:45.792Z,90.40
2023-08-31T19:19:16.735Z,88.90
2023-08-31T19:21:46.020Z,135.50
2023-08-31T19:24:13.915Z,172.17
2023-08-31T19:26:42.865Z,184.38
2023-08-31T19:29:11.103Z,184.32
2023-08-31T19:31:39.177Z,182.25
2023-08-31T19:34:07.073Z,190.55
2023-08-31T19:36:36.217Z,197.43
2023-08-31T19:39:04.216Z,180.77
2023-08-31T19:41:33.141Z,187.30
2023-08-31T19:44:00.909Z,127.95
2023-08-31T19:46:28.743Z,120.13
2023-08-31T19:48:56.688Z,86.30
2023-08-31T19:51:24.558Z,79.97
2023-08-31T19:53:54.525Z,89.28
2023-08-31T19:56:22.528Z,96.00
2023-08-31T19:58:50.267Z,88.65
2023-08-31T20:01:20.443Z,81.07
2023-08-31T20:03:48.278Z,86.80
2023-08-31T20:06:16.219Z,84.60
2023-08-31T20:08:44.125Z,92.97
2023-08-31T20:11:13.655Z,91.25
2023-08-31T20:13:41.557Z,84.82
2023-08-31T20:16:10.845Z,79.90
2023-08-31T20:18:38.773Z,76.53
2023-08-31T20:21:06.608Z,40.10
2023-08-31T20:23:34.920Z,57.10
2023-08-31T20:26:03.483Z,49.15
2023-08-31T20:28:32.625Z,70.93
2023-08-31T20:31:01.567Z,69.70
2023-08-31T20:33:29.859Z,64.13
2023-08-31T20:36:08.944Z,52.70
2023-08-31T20:38:37.282Z,64.35
2023-08-31T20:41:06.492Z,55.10
2023-08-31T20:43:35.945Z,68.57
2023-08-31T20:46:08.720Z,66.15
2023-08-31T20:48:37.064Z,69.15
2023-08-31T20:51:05.610Z,62.20
2023-08-31T20:53:33.810Z,43.65
2023-08-31T20:56:09.097Z,65.67
2023-08-31T20:58:40.161Z,59.93
2023-08-31T21:01:08.533Z,50.70
2023-08-31T21:03:40.117Z,21.63
2023-08-31T21:06:08.575Z,26.92
2023-08-31T21:08:36.867Z,24.92
2023-08-31T21:11:04.751Z,27.77
2023-08-31T21:13:37.106Z,36.53
2023-08-31T21:16:07.270Z,43.37
2023-08-31T21:18:37.392Z,28.80
2023-08-31T21:21:06.387Z,36.27
2023-08-31T21:23:34.687Z,60.75
2023-08-31T21:26:03.661Z,37.13
2023-08-31T21:28:31.938Z,31.05
2023-08-31T21:31:02.451Z,29.95
2023-08-31T21:33:32.692Z,31.77
2023-08-31T21:36:01.634Z,32.92
2023-08-31T21:38:29.575Z,35.23
2023-08-31T21:40:57.392Z,37.45
2023-08-31T21:43:25.400Z,39.03
2023-08-31T21:45:53.178Z,41.45
2023-08-31T21:48:20.971Z,40.40
2023-08-31T21:50:50.182Z,51.90
2023-08-31T21:53:18.004Z,68.73
2023-08-31T21:55:45.812Z,48.95
2023-08-31T21:58:13.798Z,39.58
2023-08-31T22:00:41.740Z,39.25
2023-08-31T22:03:09.988Z,42.57
2023-08-31T22:05:40.358Z,71.03
2023-08-31T22:08:11.788Z,58.85
2023-08-31T22:10:40.848Z,56.03
2023-08-31T22:13:09.698Z,65.43
2023-08-31T22:15:40.906Z,102.13
2023-08-31T22:18:09.301Z,121.53
2023-08-31T22:20:37.654Z,127.43
2023-08-31T22:23:09.803Z,112.88
2023-08-31T22:25:37.879Z,92.57
2023-08-31T22:28:06.956Z,123.13
2023-08-31T22:30:35.029Z,128.00
2023-08-31T22:33:03.450Z,129.85
2023-08-31T22:35:32.420Z,142.27
2023-08-31T22:38:00.414Z,118.85
2023-08-31T22:40:29.514Z,122.38
2023-08-31T22:42:59.598Z,121.00
2023-08-31T22:45:27.694Z,118.93
2023-08-31T22:47:58.333Z,129.23
2023-08-31T22:50:26.095Z,71.97
2023-08-31T22:52:53.932Z,62.95
2023-08-31T22:55:24.120Z,36.65
2023-08-31T22:57:53.185Z,44.58
2023-08-31T23:00:21.109Z,55.80
2023-08-31T23:02:49.037Z,57.17
2023-08-31T23:05:17.080Z,38.92
2023-08-31T23:07:44.889Z,32.95
2023-08-31T23:10:19.071Z,37.38
2023-08-31T23:12:50.745Z,39.22
2023-08-31T23:15:20.077Z,36.13
2023-08-31T23:17:48.219Z,33.45
2023-08-31T23:20:16.083Z,34.08
2023-08-31T23:22:44.032Z,30.17
2023-08-31T23:25:11.837Z,33.08
2023-08-31T23:27:39.648Z,38.72
2023-08-31T23:30:08.992Z,43.23
2023-08-31T23:32:38.218Z,43.45
2023-08-31T23:35:07.124Z,40.63
2023-08-31T23:37:37.138Z,63.03
2023-08-31T23:40:09.944Z,74.33
2023-08-31T23:42:38.092Z,96.65
2023-08-31T23:45:07.918Z,100.85
2023-08-31T23:47:36.088Z,113.22
2023-08-31T23:50:05.958Z,119.38
2023-08-31T23:52:34.071Z,154.57
2023-08-31T23:55:01.870Z,164.30
2023-08-31T23:57:30.297Z,149.70
2023-08-31T23:59:58.216Z,119.30
